sensor_id;sensor_type;location;lat;lon;timestamp;P1;durP1;ratioP1;P2;durP2;ratioP2
8419;SDS011;4247;48.550;8.822;2023-02-28T00:00:24;1.50;;;1.10;;
8419;SDS011;4247;48.550;8.822;2023-02-28T00:02:51;1.47;;;1.30;;
8419;SDS011;4247;48.550;8.822;2023-02-28T00:05:18;1.43;;;0.90;;
8419;SDS011;4247;48.550;8.822;2023-02-28T00:07:46;1.20;;;1.00;;
8419;SDS011;4247;48.550;8.822;2023-02-28T00:10:16;2.47;;;1.00;;
8419;SDS011;4247;48.550;8.822;2023-02-28T00:12:45;1.10;;;0.70;;
8419;SDS011;4247;48.550;8.822;2023-02-28T00:15:12;1.37;;;1.10;;
8419;SDS011;4247;48.550;8.822;2023-02-28T00:17:39;2.43;;;0.90;;
8419;SDS011;4247;48.550;8.822;2023-02-28T00:20:06;1.03;;;1.00;;
8419;SDS011;4247;48.550;8.822;2023-02-28T00:22:37;2.73;;;1.17;;
8419;SDS011;4247;48.550;8.822;2023-02-28T00:25:04;0.77;;;0.77;;
8419;SDS011;4247;48.550;8.822;2023-02-28T00:27:34;1.20;;;0.97;;
8419;SDS011;4247;48.550;8.822;2023-02-28T00:30:01;1.23;;;1.07;;
8419;SDS011;4247;48.550;8.822;2023-02-28T00:32:27;1.60;;;0.77;;
8419;SDS011;4247;48.550;8.822;2023-02-28T00:34:54;2.37;;;1.03;;
8419;SDS011;4247;48.550;8.822;2023-02-28T00:37:21;2.30;;;0.80;;
8419;SDS011;4247;48.550;8.822;2023-02-28T00:39:48;0.90;;;0.90;;
8419;SDS011;4247;48.550;8.822;2023-02-28T00:42:15;1.83;;;1.20;;
8419;SDS011;4247;48.550;8.822;2023-02-28T00:44:43;2.37;;;0.93;;
8419;SDS011;4247;48.550;8.822;2023-02-28T00:47:09;1.00;;;1.00;;
8419;SDS011;4247;48.550;8.822;2023-02-28T00:49:36;1.70;;;1.33;;
8419;SDS011;4247;48.550;8.822;2023-02-28T00:52:03;3.60;;;0.83;;
8419;SDS011;4247;48.550;8.822;2023-02-28T00:54:30;1.47;;;0.90;;
8419;SDS011;4247;48.550;8.822;2023-02-28T00:56:56;2.40;;;1.20;;
8419;SDS011;4247;48.550;8.822;2023-02-28T00:59:23;2.40;;;1.33;;
8419;SDS011;4247;48.550;8.822;2023-02-28T01:01:51;1.17;;;1.03;;
8419;SDS011;4247;48.550;8.822;2023-02-28T01:04:18;1.33;;;0.97;;
8419;SDS011;4247;48.550;8.822;2023-02-28T01:06:44;1.67;;;1.03;;
8419;SDS011;4247;48.550;8.822;2023-02-28T01:09:11;1.30;;;1.20;;
8419;SDS011;4247;48.550;8.822;2023-02-28T01:11:38;0.77;;;0.70;;
8419;SDS011;4247;48.550;8.822;2023-02-28T01:14:06;1.67;;;1.10;;
8419;SDS011;4247;48.550;8.822;2023-02-28T01:16:34;1.87;;;1.00;;
8419;SDS011;4247;48.550;8.822;2023-02-28T01:19:02;1.90;;;1.07;;
8419;SDS011;4247;48.550;8.822;2023-02-28T01:21:29;1.40;;;1.20;;
8419;SDS011;4247;48.550;8.822;2023-02-28T01:23:56;3.27;;;1.40;;
8419;SDS011;4247;48.550;8.822;2023-02-28T01:26:23;2.47;;;1.00;;
8419;SDS011;4247;48.550;8.822;2023-02-28T01:28:50;0.70;;;0.70;;
8419;SDS011;4247;48.550;8.822;2023-02-28T01:31:19;4.20;;;1.23;;
8419;SDS011;4247;48.550;8.822;2023-02-28T01:33:46;1.60;;;1.03;;
8419;SDS011;4247;48.550;8.822;2023-02-28T01:36:15;0.90;;;0.83;;
8419;SDS011;4247;48.550;8.822;2023-02-28T01:38:43;1.37;;;1.00;;
8419;SDS011;4247;48.550;8.822;2023-02-28T01:41:12;1.70;;;0.80;;
8419;SDS011;4247;48.550;8.822;2023-02-28T01:43:55;2.60;;;0.90;;
8419;SDS011;4247;48.550;8.822;2023-02-28T01:46:24;1.10;;;1.00;;
8419;SDS011;4247;48.550;8.822;2023-02-28T01:48:51;1.10;;;0.90;;
8419;SDS011;4247;48.550;8.822;2023-02-28T01:51:26;2.80;;;1.10;;
8419;SDS011;4247;48.550;8.822;2023-02-28T01:53:58;1.30;;;1.20;;
8419;SDS011;4247;48.550;8.822;2023-02-28T01:56:29;1.10;;;1.10;;
8419;SDS011;4247;48.550;8.822;2023-02-28T01:58:59;0.73;;;0.73;;
8419;SDS011;4247;48.550;8.822;2023-02-28T02:01:26;0.80;;;0.80;;
8419;SDS011;4247;48.550;8.822;2023-02-28T02:03:54;1.20;;;1.20;;
8419;SDS011;4247;48.550;8.822;2023-02-28T02:06:22;1.37;;;1.10;;
8419;SDS011;4247;48.550;8.822;2023-02-28T02:08:53;1.00;;;1.00;;
8419;SDS011;4247;48.550;8.822;2023-02-28T02:11:30;0.93;;;0.93;;
8419;SDS011;4247;48.550;8.822;2023-02-28T02:14:07;1.60;;;1.20;;
8419;SDS011;4247;48.550;8.822;2023-02-28T02:16:46;1.40;;;1.20;;
8419;SDS011;4247;48.550;8.822;2023-02-28T02:19:32;0.63;;;0.63;;
8419;SDS011;4247;48.550;8.822;2023-02-28T02:25:25;0.90;;;0.90;;
8419;SDS011;4247;48.550;8.822;2023-02-28T02:28:02;1.90;;;1.67;;
8419;SDS011;4247;48.550;8.822;2023-02-28T02:36:44;1.40;;;1.30;;
8419;SDS011;4247;48.550;8.822;2023-02-28T02:39:14;0.97;;;0.83;;
8419;SDS011;4247;48.550;8.822;2023-02-28T02:41:46;2.17;;;1.10;;
8419;SDS011;4247;48.550;8.822;2023-02-28T02:44:18;1.23;;;1.13;;
8419;SDS011;4247;48.550;8.822;2023-02-28T02:46:50;2.73;;;1.17;;
8419;SDS011;4247;48.550;8.822;2023-02-28T02:49:21;2.57;;;0.90;;
8419;SDS011;4247;48.550;8.822;2023-02-28T02:51:51;1.57;;;1.13;;
8419;SDS011;4247;48.550;8.822;2023-02-28T02:54:21;1.73;;;1.47;;
8419;SDS011;4247;48.550;8.822;2023-02-28T02:56:53;1.30;;;0.97;;
8419;SDS011;4247;48.550;8.822;2023-02-28T02:59:24;1.40;;;1.30;;
8419;SDS011;4247;48.550;8.822;2023-02-28T03:01:54;3.17;;;1.23;;
8419;SDS011;4247;48.550;8.822;2023-02-28T03:04:25;2.60;;;1.30;;
8419;SDS011;4247;48.550;8.822;2023-02-28T03:06:57;1.50;;;1.40;;
8419;SDS011;4247;48.550;8.822;2023-02-28T03:09:24;4.00;;;1.20;;
8419;SDS011;4247;48.550;8.822;2023-02-28T03:11:53;1.30;;;1.20;;
8419;SDS011;4247;48.550;8.822;2023-02-28T03:14:25;3.97;;;2.20;;
8419;SDS011;4247;48.550;8.822;2023-02-28T03:20:06;4.97;;;1.20;;
8419;SDS011;4247;48.550;8.822;2023-02-28T03:22:41;1.20;;;1.17;;
8419;SDS011;4247;48.550;8.822;2023-02-28T03:25:19;3.87;;;1.23;;
8419;SDS011;4247;48.550;8.822;2023-02-28T03:27:53;1.70;;;1.30;;
8419;SDS011;4247;48.550;8.822;2023-02-28T03:30:26;1.97;;;1.57;;
8419;SDS011;4247;48.550;8.822;2023-02-28T03:33:00;2.10;;;1.83;;
8419;SDS011;4247;48.550;8.822;2023-02-28T03:35:34;4.63;;;1.67;;
8419;SDS011;4247;48.550;8.822;2023-02-28T03:38:04;1.73;;;1.27;;
8419;SDS011;4247;48.550;8.822;2023-02-28T03:40:34;1.47;;;1.37;;
8419;SDS011;4247;48.550;8.822;2023-02-28T03:43:04;1.90;;;1.80;;
8419;SDS011;4247;48.550;8.822;2023-02-28T03:45:37;2.27;;;1.80;;
8419;SDS011;4247;48.550;8.822;2023-02-28T03:48:07;1.17;;;1.10;;
8419;SDS011;4247;48.550;8.822;2023-02-28T03:50:41;2.03;;;1.67;;
8419;SDS011;4247;48.550;8.822;2023-02-28T03:53:10;4.97;;;1.70;;
8419;SDS011;4247;48.550;8.822;2023-02-28T03:55:41;3.93;;;1.73;;
8419;SDS011;4247;48.550;8.822;2023-02-28T03:58:11;3.50;;;2.10;;
8419;SDS011;4247;48.550;8.822;2023-02-28T04:00:43;1.70;;;1.60;;
8419;SDS011;4247;48.550;8.822;2023-02-28T04:03:13;2.13;;;1.57;;
8419;SDS011;4247;48.550;8.822;2023-02-28T04:05:49;1.63;;;1.53;;
8419;SDS011;4247;48.550;8.822;2023-02-28T04:08:18;2.43;;;1.83;;
8419;SDS011;4247;48.550;8.822;2023-02-28T04:10:45;3.27;;;1.77;;
8419;SDS011;4247;48.550;8.822;2023-02-28T04:13:17;4.00;;;1.80;;
8419;SDS011;4247;48.550;8.822;2023-02-28T04:15:43;2.87;;;1.63;;
8419;SDS011;4247;48.550;8.822;2023-02-28T04:18:10;3.40;;;2.10;;
8419;SDS011;4247;48.550;8.822;2023-02-28T04:20:37;2.67;;;2.47;;
8419;SDS011;4247;48.550;8.822;2023-02-28T04:23:05;1.93;;;1.67;;
8419;SDS011;4247;48.550;8.822;2023-02-28T04:25:32;2.77;;;1.43;;
8419;SDS011;4247;48.550;8.822;2023-02-28T04:27:58;2.87;;;1.80;;
8419;SDS011;4247;48.550;8.822;2023-02-28T04:30:25;2.23;;;2.10;;
8419;SDS011;4247;48.550;8.822;2023-02-28T04:32:52;1.67;;;1.57;;
8419;SDS011;4247;48.550;8.822;2023-02-28T04:35:18;1.93;;;1.83;;
8419;SDS011;4247;48.550;8.822;2023-02-28T04:37:45;2.73;;;1.87;;
8419;SDS011;4247;48.550;8.822;2023-02-28T04:40:13;2.30;;;2.10;;
8419;SDS011;4247;48.550;8.822;2023-02-28T04:42:40;2.10;;;1.53;;
8419;SDS011;4247;48.550;8.822;2023-02-28T04:45:07;2.03;;;1.73;;
8419;SDS011;4247;48.550;8.822;2023-02-28T04:47:36;1.90;;;1.80;;
8419;SDS011;4247;48.550;8.822;2023-02-28T04:50:02;2.00;;;1.80;;
8419;SDS011;4247;48.550;8.822;2023-02-28T04:52:30;4.67;;;1.77;;
8419;SDS011;4247;48.550;8.822;2023-02-28T04:54:56;2.27;;;2.10;;
8419;SDS011;4247;48.550;8.822;2023-02-28T04:57:25;5.13;;;2.27;;
8419;SDS011;4247;48.550;8.822;2023-02-28T04:59:51;1.83;;;1.73;;
8419;SDS011;4247;48.550;8.822;2023-02-28T05:02:18;7.27;;;2.00;;
8419;SDS011;4247;48.550;8.822;2023-02-28T05:04:46;7.37;;;1.60;;
8419;SDS011;4247;48.550;8.822;2023-02-28T05:07:13;2.20;;;2.03;;
8419;SDS011;4247;48.550;8.822;2023-02-28T05:09:39;2.03;;;1.83;;
8419;SDS011;4247;48.550;8.822;2023-02-28T05:12:06;1.97;;;1.87;;
8419;SDS011;4247;48.550;8.822;2023-02-28T05:14:36;5.10;;;2.20;;
8419;SDS011;4247;48.550;8.822;2023-02-28T05:17:03;14.37;;;1.80;;
8419;SDS011;4247;48.550;8.822;2023-02-28T05:19:29;4.67;;;2.47;;
8419;SDS011;4247;48.550;8.822;2023-02-28T05:21:56;2.17;;;1.97;;
8419;SDS011;4247;48.550;8.822;2023-02-28T05:24:23;3.27;;;2.17;;
8419;SDS011;4247;48.550;8.822;2023-02-28T05:26:50;4.83;;;2.40;;
8419;SDS011;4247;48.550;8.822;2023-02-28T05:29:18;5.13;;;2.97;;
8419;SDS011;4247;48.550;8.822;2023-02-28T05:31:46;2.20;;;2.10;;
8419;SDS011;4247;48.550;8.822;2023-02-28T05:34:13;2.00;;;1.80;;
8419;SDS011;4247;48.550;8.822;2023-02-28T05:36:40;3.53;;;3.23;;
8419;SDS011;4247;48.550;8.822;2023-02-28T05:39:07;4.83;;;3.37;;
8419;SDS011;4247;48.550;8.822;2023-02-28T05:41:37;2.40;;;1.97;;
8419;SDS011;4247;48.550;8.822;2023-02-28T05:44:06;5.03;;;2.83;;
8419;SDS011;4247;48.550;8.822;2023-02-28T05:46:32;2.90;;;2.47;;
8419;SDS011;4247;48.550;8.822;2023-02-28T05:49:01;3.80;;;2.10;;
8419;SDS011;4247;48.550;8.822;2023-02-28T05:51:28;3.70;;;2.70;;
8419;SDS011;4247;48.550;8.822;2023-02-28T05:53:54;3.43;;;1.83;;
8419;SDS011;4247;48.550;8.822;2023-02-28T05:56:25;4.13;;;2.77;;
8419;SDS011;4247;48.550;8.822;2023-02-28T05:58:52;5.13;;;2.97;;
8419;SDS011;4247;48.550;8.822;2023-02-28T06:01:19;3.43;;;3.13;;
8419;SDS011;4247;48.550;8.822;2023-02-28T06:03:50;4.33;;;3.07;;
8419;SDS011;4247;48.550;8.822;2023-02-28T06:06:18;3.80;;;2.53;;
8419;SDS011;4247;48.550;8.822;2023-02-28T06:08:45;3.90;;;3.20;;
8419;SDS011;4247;48.550;8.822;2023-02-28T06:11:11;3.53;;;3.00;;
8419;SDS011;4247;48.550;8.822;2023-02-28T06:13:38;4.53;;;3.00;;
8419;SDS011;4247;48.550;8.822;2023-02-28T06:16:06;3.97;;;3.07;;
8419;SDS011;4247;48.550;8.822;2023-02-28T06:18:34;2.77;;;2.50;;
8419;SDS011;4247;48.550;8.822;2023-02-28T06:21:00;3.77;;;3.37;;
8419;SDS011;4247;48.550;8.822;2023-02-28T06:23:28;3.90;;;3.30;;
8419;SDS011;4247;48.550;8.822;2023-02-28T06:25:55;3.33;;;2.40;;
8419;SDS011;4247;48.550;8.822;2023-02-28T06:28:23;3.63;;;3.10;;
8419;SDS011;4247;48.550;8.822;2023-02-28T06:30:50;3.93;;;3.07;;
8419;SDS011;4247;48.550;8.822;2023-02-28T06:33:17;3.97;;;2.73;;
8419;SDS011;4247;48.550;8.822;2023-02-28T06:35:44;6.77;;;3.73;;
8419;SDS011;4247;48.550;8.822;2023-02-28T06:38:12;4.30;;;3.27;;
8419;SDS011;4247;48.550;8.822;2023-02-28T06:40:40;4.20;;;3.37;;
8419;SDS011;4247;48.550;8.822;2023-02-28T06:43:06;5.37;;;3.40;;
8419;SDS011;4247;48.550;8.822;2023-02-28T06:45:33;3.10;;;2.90;;
8419;SDS011;4247;48.550;8.822;2023-02-28T06:48:00;3.13;;;2.93;;
8419;SDS011;4247;48.550;8.822;2023-02-28T06:50:27;4.33;;;3.70;;
8419;SDS011;4247;48.550;8.822;2023-02-28T06:52:54;6.53;;;3.60;;
8419;SDS011;4247;48.550;8.822;2023-02-28T06:55:21;2.63;;;2.43;;
8419;SDS011;4247;48.550;8.822;2023-02-28T06:57:49;3.63;;;3.17;;
8419;SDS011;4247;48.550;8.822;2023-02-28T07:00:16;4.17;;;3.53;;
8419;SDS011;4247;48.550;8.822;2023-02-28T07:02:43;5.90;;;4.37;;
8419;SDS011;4247;48.550;8.822;2023-02-28T07:05:10;4.40;;;3.50;;
8419;SDS011;4247;48.550;8.822;2023-02-28T07:07:36;3.70;;;3.20;;
8419;SDS011;4247;48.550;8.822;2023-02-28T07:10:05;5.37;;;3.37;;
8419;SDS011;4247;48.550;8.822;2023-02-28T07:12:33;5.50;;;3.13;;
8419;SDS011;4247;48.550;8.822;2023-02-28T07:15:00;4.40;;;3.33;;
8419;SDS011;4247;48.550;8.822;2023-02-28T07:17:28;6.90;;;3.03;;
8419;SDS011;4247;48.550;8.822;2023-02-28T07:19:54;4.83;;;3.03;;
8419;SDS011;4247;48.550;8.822;2023-02-28T07:22:21;5.30;;;3.67;;
8419;SDS011;4247;48.550;8.822;2023-02-28T07:24:48;3.50;;;3.20;;
8419;SDS011;4247;48.550;8.822;2023-02-28T07:27:14;6.67;;;3.70;;
8419;SDS011;4247;48.550;8.822;2023-02-28T07:29:48;3.30;;;3.07;;
8419;SDS011;4247;48.550;8.822;2023-02-28T07:32:16;4.67;;;3.60;;
8419;SDS011;4247;48.550;8.822;2023-02-28T07:34:43;5.10;;;3.67;;
8419;SDS011;4247;48.550;8.822;2023-02-28T07:37:10;4.00;;;3.70;;
8419;SDS011;4247;48.550;8.822;2023-02-28T07:39:37;4.20;;;3.50;;
8419;SDS011;4247;48.550;8.822;2023-02-28T07:42:04;3.03;;;2.17;;
8419;SDS011;4247;48.550;8.822;2023-02-28T07:44:31;6.97;;;3.67;;
8419;SDS011;4247;48.550;8.822;2023-02-28T07:46:57;7.30;;;4.47;;
8419;SDS011;4247;48.550;8.822;2023-02-28T07:49:25;5.37;;;3.37;;
8419;SDS011;4247;48.550;8.822;2023-02-28T07:51:52;6.17;;;3.90;;
8419;SDS011;4247;48.550;8.822;2023-02-28T07:54:19;5.33;;;2.80;;
8419;SDS011;4247;48.550;8.822;2023-02-28T07:56:45;6.50;;;3.57;;
8419;SDS011;4247;48.550;8.822;2023-02-28T07:59:12;5.60;;;4.23;;
8419;SDS011;4247;48.550;8.822;2023-02-28T08:01:39;5.67;;;4.17;;
8419;SDS011;4247;48.550;8.822;2023-02-28T08:04:06;5.90;;;3.97;;
8419;SDS011;4247;48.550;8.822;2023-02-28T08:06:34;4.67;;;3.67;;
8419;SDS011;4247;48.550;8.822;2023-02-28T08:09:00;4.57;;;4.07;;
8419;SDS011;4247;48.550;8.822;2023-02-28T08:11:27;4.87;;;4.03;;
8419;SDS011;4247;48.550;8.822;2023-02-28T08:13:56;3.77;;;3.43;;
8419;SDS011;4247;48.550;8.822;2023-02-28T08:16:22;5.70;;;3.60;;
8419;SDS011;4247;48.550;8.822;2023-02-28T08:18:49;5.30;;;4.20;;
8419;SDS011;4247;48.550;8.822;2023-02-28T08:21:17;6.23;;;3.80;;
8419;SDS011;4247;48.550;8.822;2023-02-28T08:23:47;7.87;;;4.90;;
8419;SDS011;4247;48.550;8.822;2023-02-28T08:26:14;6.83;;;3.97;;
8419;SDS011;4247;48.550;8.822;2023-02-28T08:28:41;8.40;;;5.23;;
8419;SDS011;4247;48.550;8.822;2023-02-28T08:31:08;6.03;;;4.70;;
8419;SDS011;4247;48.550;8.822;2023-02-28T08:33:36;5.83;;;4.10;;
8419;SDS011;4247;48.550;8.822;2023-02-28T08:36:04;5.13;;;4.27;;
8419;SDS011;4247;48.550;8.822;2023-02-28T08:38:32;4.67;;;4.00;;
8419;SDS011;4247;48.550;8.822;2023-02-28T08:41:01;4.03;;;3.43;;
8419;SDS011;4247;48.550;8.822;2023-02-28T08:43:31;6.90;;;4.80;;
8419;SDS011;4247;48.550;8.822;2023-02-28T08:45:57;8.33;;;4.43;;
8419;SDS011;4247;48.550;8.822;2023-02-28T08:48:24;7.47;;;3.87;;
8419;SDS011;4247;48.550;8.822;2023-02-28T08:50:54;6.60;;;4.30;;
8419;SDS011;4247;48.550;8.822;2023-02-28T08:53:22;8.83;;;4.57;;
8419;SDS011;4247;48.550;8.822;2023-02-28T08:55:54;6.47;;;4.10;;
8419;SDS011;4247;48.550;8.822;2023-02-28T08:58:23;16.67;;;5.07;;
8419;SDS011;4247;48.550;8.822;2023-02-28T09:00:50;7.07;;;4.80;;
8419;SDS011;4247;48.550;8.822;2023-02-28T09:03:17;4.60;;;3.90;;
8419;SDS011;4247;48.550;8.822;2023-02-28T09:05:51;7.93;;;4.50;;
8419;SDS011;4247;48.550;8.822;2023-02-28T09:08:18;9.00;;;4.80;;
8419;SDS011;4247;48.550;8.822;2023-02-28T09:10:45;5.60;;;4.00;;
8419;SDS011;4247;48.550;8.822;2023-02-28T09:13:12;8.70;;;4.33;;
8419;SDS011;4247;48.550;8.822;2023-02-28T09:15:40;9.77;;;4.27;;
8419;SDS011;4247;48.550;8.822;2023-02-28T09:18:06;10.10;;;4.83;;
8419;SDS011;4247;48.550;8.822;2023-02-28T09:20:33;6.57;;;4.97;;
8419;SDS011;4247;48.550;8.822;2023-02-28T09:23:00;6.60;;;4.20;;
8419;SDS011;4247;48.550;8.822;2023-02-28T09:25:27;5.40;;;4.87;;
8419;SDS011;4247;48.550;8.822;2023-02-28T09:27:53;6.60;;;4.57;;
8419;SDS011;4247;48.550;8.822;2023-02-28T09:30:20;5.00;;;4.30;;
8419;SDS011;4247;48.550;8.822;2023-02-28T09:32:48;7.77;;;4.13;;
8419;SDS011;4247;48.550;8.822;2023-02-28T09:35:17;5.50;;;4.07;;
8419;SDS011;4247;48.550;8.822;2023-02-28T09:37:44;7.93;;;4.03;;
8419;SDS011;4247;48.550;8.822;2023-02-28T09:40:11;6.23;;;4.77;;
8419;SDS011;4247;48.550;8.822;2023-02-28T09:42:39;6.70;;;4.77;;
8419;SDS011;4247;48.550;8.822;2023-02-28T09:45:10;6.50;;;4.23;;
8419;SDS011;4247;48.550;8.822;2023-02-28T09:47:46;4.77;;;4.27;;
8419;SDS011;4247;48.550;8.822;2023-02-28T09:50:17;7.50;;;4.40;;
8419;SDS011;4247;48.550;8.822;2023-02-28T09:52:48;8.07;;;4.40;;
8419;SDS011;4247;48.550;8.822;2023-02-28T09:55:18;5.40;;;4.13;;
8419;SDS011;4247;48.550;8.822;2023-02-28T09:57:48;6.57;;;4.20;;
8419;SDS011;4247;48.550;8.822;2023-02-28T10:00:17;6.10;;;4.60;;
8419;SDS011;4247;48.550;8.822;2023-02-28T10:02:57;4.63;;;3.87;;
8419;SDS011;4247;48.550;8.822;2023-02-28T10:05:47;10.70;;;4.97;;
8419;SDS011;4247;48.550;8.822;2023-02-28T10:08:19;5.57;;;4.30;;
8419;SDS011;4247;48.550;8.822;2023-02-28T10:10:51;6.70;;;4.37;;
8419;SDS011;4247;48.550;8.822;2023-02-28T10:13:22;7.20;;;5.27;;
8419;SDS011;4247;48.550;8.822;2023-02-28T10:15:52;6.37;;;4.93;;
8419;SDS011;4247;48.550;8.822;2023-02-28T10:18:26;7.90;;;4.87;;
8419;SDS011;4247;48.550;8.822;2023-02-28T10:20:57;7.47;;;5.20;;
8419;SDS011;4247;48.550;8.822;2023-02-28T10:23:26;8.90;;;4.90;;
8419;SDS011;4247;48.550;8.822;2023-02-28T10:25:58;10.30;;;5.57;;
8419;SDS011;4247;48.550;8.822;2023-02-28T10:28:26;5.37;;;4.20;;
8419;SDS011;4247;48.550;8.822;2023-02-28T10:30:55;6.00;;;5.00;;
8419;SDS011;4247;48.550;8.822;2023-02-28T10:33:24;7.10;;;5.00;;
8419;SDS011;4247;48.550;8.822;2023-02-28T10:35:54;5.53;;;4.20;;
8419;SDS011;4247;48.550;8.822;2023-02-28T10:38:22;6.13;;;4.27;;
8419;SDS011;4247;48.550;8.822;2023-02-28T10:40:51;4.93;;;4.43;;
8419;SDS011;4247;48.550;8.822;2023-02-28T10:43:28;7.57;;;4.80;;
8419;SDS011;4247;48.550;8.822;2023-02-28T10:45:56;10.60;;;5.47;;
8419;SDS011;4247;48.550;8.822;2023-02-28T10:48:29;7.13;;;5.00;;
8419;SDS011;4247;48.550;8.822;2023-02-28T10:50:58;9.77;;;5.07;;
8419;SDS011;4247;48.550;8.822;2023-02-28T10:53:33;4.33;;;3.93;;
8419;SDS011;4247;48.550;8.822;2023-02-28T10:56:04;5.77;;;4.57;;
8419;SDS011;4247;48.550;8.822;2023-02-28T10:58:42;6.90;;;4.53;;
8419;SDS011;4247;48.550;8.822;2023-02-28T11:01:14;5.63;;;4.67;;
8419;SDS011;4247;48.550;8.822;2023-02-28T11:03:43;5.33;;;4.40;;
8419;SDS011;4247;48.550;8.822;2023-02-28T11:06:13;6.77;;;5.00;;
8419;SDS011;4247;48.550;8.822;2023-02-28T11:08:44;5.70;;;4.27;;
8419;SDS011;4247;48.550;8.822;2023-02-28T11:11:12;5.13;;;4.17;;
8419;SDS011;4247;48.550;8.822;2023-02-28T11:13:39;10.83;;;5.10;;
8419;SDS011;4247;48.550;8.822;2023-02-28T11:16:07;5.70;;;4.80;;
8419;SDS011;4247;48.550;8.822;2023-02-28T11:18:37;8.47;;;4.73;;
8419;SDS011;4247;48.550;8.822;2023-02-28T11:21:09;21.87;;;5.10;;
8419;SDS011;4247;48.550;8.822;2023-02-28T11:23:42;6.03;;;4.63;;
8419;SDS011;4247;48.550;8.822;2023-02-28T11:26:10;8.03;;;4.80;;
8419;SDS011;4247;48.550;8.822;2023-02-28T11:28:37;5.87;;;4.70;;
8419;SDS011;4247;48.550;8.822;2023-02-28T11:31:14;4.87;;;4.40;;
8419;SDS011;4247;48.550;8.822;2023-02-28T11:33:44;6.97;;;4.80;;
8419;SDS011;4247;48.550;8.822;2023-02-28T11:36:17;8.43;;;4.67;;
8419;SDS011;4247;48.550;8.822;2023-02-28T11:38:46;7.60;;;4.73;;
8419;SDS011;4247;48.550;8.822;2023-02-28T11:41:18;21.93;;;6.40;;
8419;SDS011;4247;48.550;8.822;2023-02-28T11:43:58;6.20;;;4.13;;
8419;SDS011;4247;48.550;8.822;2023-02-28T11:46:33;7.63;;;5.07;;
8419;SDS011;4247;48.550;8.822;2023-02-28T11:49:11;6.83;;;4.70;;
8419;SDS011;4247;48.550;8.822;2023-02-28T11:51:49;7.10;;;5.17;;
8419;SDS011;4247;48.550;8.822;2023-02-28T11:54:23;8.30;;;4.60;;
8419;SDS011;4247;48.550;8.822;2023-02-28T11:57:00;6.23;;;4.77;;
8419;SDS011;4247;48.550;8.822;2023-02-28T11:59:37;9.40;;;6.47;;
8419;SDS011;4247;48.550;8.822;2023-02-28T12:02:20;7.80;;;5.17;;
8419;SDS011;4247;48.550;8.822;2023-02-28T12:04:52;6.80;;;4.97;;
8419;SDS011;4247;48.550;8.822;2023-02-28T12:07:37;6.63;;;4.07;;
8419;SDS011;4247;48.550;8.822;2023-02-28T12:10:16;7.20;;;5.03;;
8419;SDS011;4247;48.550;8.822;2023-02-28T12:12:49;6.77;;;5.07;;
8419;SDS011;4247;48.550;8.822;2023-02-28T12:15:35;7.87;;;5.10;;
8419;SDS011;4247;48.550;8.822;2023-02-28T12:18:17;7.20;;;4.97;;
8419;SDS011;4247;48.550;8.822;2023-02-28T12:20:57;6.47;;;5.00;;
8419;SDS011;4247;48.550;8.822;2023-02-28T12:23:44;7.90;;;5.17;;
8419;SDS011;4247;48.550;8.822;2023-02-28T12:26:25;10.93;;;4.63;;
8419;SDS011;4247;48.550;8.822;2023-02-28T12:28:57;6.90;;;4.97;;
8419;SDS011;4247;48.550;8.822;2023-02-28T12:31:28;12.87;;;5.07;;
8419;SDS011;4247;48.550;8.822;2023-02-28T12:33:59;6.97;;;5.77;;
8419;SDS011;4247;48.550;8.822;2023-02-28T12:36:30;8.60;;;4.57;;
8419;SDS011;4247;48.550;8.822;2023-02-28T12:39:01;9.33;;;4.60;;
8419;SDS011;4247;48.550;8.822;2023-02-28T12:41:33;6.47;;;4.60;;
8419;SDS011;4247;48.550;8.822;2023-02-28T12:44:05;8.17;;;5.30;;
8419;SDS011;4247;48.550;8.822;2023-02-28T12:46:39;5.00;;;4.47;;
8419;SDS011;4247;48.550;8.822;2023-02-28T12:49:09;5.13;;;4.63;;
8419;SDS011;4247;48.550;8.822;2023-02-28T12:51:41;5.57;;;4.93;;
8419;SDS011;4247;48.550;8.822;2023-02-28T12:54:13;7.33;;;5.20;;
8419;SDS011;4247;48.550;8.822;2023-02-28T12:56:53;7.00;;;5.23;;
8419;SDS011;4247;48.550;8.822;2023-02-28T12:59:25;5.90;;;4.53;;
8419;SDS011;4247;48.550;8.822;2023-02-28T13:05:13;5.47;;;4.27;;
8419;SDS011;4247;48.550;8.822;2023-02-28T13:08:08;9.23;;;4.53;;
8419;SDS011;4247;48.550;8.822;2023-02-28T13:11:02;9.00;;;4.67;;
8419;SDS011;4247;48.550;8.822;2023-02-28T13:13:29;6.77;;;5.23;;
8419;SDS011;4247;48.550;8.822;2023-02-28T13:16:04;6.10;;;4.80;;
8419;SDS011;4247;48.550;8.822;2023-02-28T13:18:34;8.70;;;4.97;;
8419;SDS011;4247;48.550;8.822;2023-02-28T13:21:03;8.20;;;5.50;;
8419;SDS011;4247;48.550;8.822;2023-02-28T13:23:56;9.13;;;5.90;;
8419;SDS011;4247;48.550;8.822;2023-02-28T13:29:31;8.10;;;5.27;;
8419;SDS011;4247;48.550;8.822;2023-02-28T13:32:19;5.93;;;5.20;;
8419;SDS011;4247;48.550;8.822;2023-02-28T13:35:14;5.93;;;4.13;;
8419;SDS011;4247;48.550;8.822;2023-02-28T13:38:09;6.97;;;4.63;;
8419;SDS011;4247;48.550;8.822;2023-02-28T13:40:43;5.13;;;4.03;;
8419;SDS011;4247;48.550;8.822;2023-02-28T13:43:10;6.10;;;4.80;;
8419;SDS011;4247;48.550;8.822;2023-02-28T13:45:38;7.23;;;5.47;;
8419;SDS011;4247;48.550;8.822;2023-02-28T13:48:19;8.37;;;4.70;;
8419;SDS011;4247;48.550;8.822;2023-02-28T13:50:52;7.30;;;5.03;;
8419;SDS011;4247;48.550;8.822;2023-02-28T13:56:34;6.30;;;4.63;;
8419;SDS011;4247;48.550;8.822;2023-02-28T13:59:16;7.07;;;4.63;;
8419;SDS011;4247;48.550;8.822;2023-02-28T14:01:55;8.50;;;5.90;;
8419;SDS011;4247;48.550;8.822;2023-02-28T14:04:41;8.87;;;5.17;;
8419;SDS011;4247;48.550;8.822;2023-02-28T14:07:16;7.73;;;5.60;;
8419;SDS011;4247;48.550;8.822;2023-02-28T14:09:46;11.93;;;4.90;;
8419;SDS011;4247;48.550;8.822;2023-02-28T14:15:36;8.20;;;4.63;;
8419;SDS011;4247;48.550;8.822;2023-02-28T14:18:16;6.57;;;4.70;;
8419;SDS011;4247;48.550;8.822;2023-02-28T14:20:47;9.00;;;4.83;;
8419;SDS011;4247;48.550;8.822;2023-02-28T14:23:16;5.63;;;5.10;;
8419;SDS011;4247;48.550;8.822;2023-02-28T14:25:54;10.40;;;5.47;;
8419;SDS011;4247;48.550;8.822;2023-02-28T14:28:36;9.17;;;5.83;;
8419;SDS011;4247;48.550;8.822;2023-02-28T14:31:15;7.27;;;5.20;;
8419;SDS011;4247;48.550;8.822;2023-02-28T14:33:59;8.40;;;6.00;;
8419;SDS011;4247;48.550;8.822;2023-02-28T14:36:40;8.30;;;5.97;;
8419;SDS011;4247;48.550;8.822;2023-02-28T14:39:11;8.33;;;5.47;;
8419;SDS011;4247;48.550;8.822;2023-02-28T14:41:40;9.93;;;5.87;;
8419;SDS011;4247;48.550;8.822;2023-02-28T14:44:15;9.67;;;5.30;;
8419;SDS011;4247;48.550;8.822;2023-02-28T14:46:44;7.30;;;5.63;;
8419;SDS011;4247;48.550;8.822;2023-02-28T14:49:15;8.43;;;5.87;;
8419;SDS011;4247;48.550;8.822;2023-02-28T14:51:45;6.73;;;5.27;;
8419;SDS011;4247;48.550;8.822;2023-02-28T14:54:13;5.97;;;5.20;;
8419;SDS011;4247;48.550;8.822;2023-02-28T14:56:42;7.87;;;5.00;;
8419;SDS011;4247;48.550;8.822;2023-02-28T14:59:23;10.30;;;5.33;;
8419;SDS011;4247;48.550;8.822;2023-02-28T15:01:52;7.53;;;5.73;;
8419;SDS011;4247;48.550;8.822;2023-02-28T15:04:35;6.87;;;4.80;;
8419;SDS011;4247;48.550;8.822;2023-02-28T15:07:08;7.63;;;5.83;;
8419;SDS011;4247;48.550;8.822;2023-02-28T15:09:36;9.00;;;6.40;;
8419;SDS011;4247;48.550;8.822;2023-02-28T15:12:03;9.53;;;6.20;;
8419;SDS011;4247;48.550;8.822;2023-02-28T15:14:30;8.37;;;5.53;;
8419;SDS011;4247;48.550;8.822;2023-02-28T15:16:59;5.80;;;5.00;;
8419;SDS011;4247;48.550;8.822;2023-02-28T15:19:30;7.53;;;4.83;;
8419;SDS011;4247;48.550;8.822;2023-02-28T15:22:01;9.10;;;5.23;;
8419;SDS011;4247;48.550;8.822;2023-02-28T15:24:32;5.60;;;4.53;;
8419;SDS011;4247;48.550;8.822;2023-02-28T15:27:04;7.07;;;5.53;;
8419;SDS011;4247;48.550;8.822;2023-02-28T15:29:35;7.83;;;5.83;;
8419;SDS011;4247;48.550;8.822;2023-02-28T15:32:26;8.37;;;6.07;;
8419;SDS011;4247;48.550;8.822;2023-02-28T15:34:54;8.17;;;5.40;;
8419;SDS011;4247;48.550;8.822;2023-02-28T15:37:27;7.53;;;4.77;;
8419;SDS011;4247;48.550;8.822;2023-02-28T15:39:56;8.20;;;5.50;;
8419;SDS011;4247;48.550;8.822;2023-02-28T15:42:27;7.30;;;6.03;;
8419;SDS011;4247;48.550;8.822;2023-02-28T15:44:54;8.40;;;4.73;;
8419;SDS011;4247;48.550;8.822;2023-02-28T15:47:22;7.23;;;5.63;;
8419;SDS011;4247;48.550;8.822;2023-02-28T15:49:52;8.43;;;5.50;;
8419;SDS011;4247;48.550;8.822;2023-02-28T15:52:21;6.83;;;5.33;;
8419;SDS011;4247;48.550;8.822;2023-02-28T15:54:51;13.23;;;5.93;;
8419;SDS011;4247;48.550;8.822;2023-02-28T15:57:18;5.70;;;4.97;;
8419;SDS011;4247;48.550;8.822;2023-02-28T15:59:51;7.60;;;5.77;;